sensor_id;sensor_type;location;lat;lon;timestamp;temperature;humidity
21429;DHT22;10875;50.444;30.540;2022-10-22T00:01:05;4.90;99.90
21429;DHT22;10875;50.444;30.540;2022-10-22T00:03:31;4.90;99.90
21429;DHT22;10875;50.444;30.540;2022-10-22T00:05:57;4.90;99.90
21429;DHT22;10875;50.444;30.540;2022-10-22T00:08:23;4.90;99.90
21429;DHT22;10875;50.444;30.540;2022-10-22T00:10:48;4.90;99.90
21429;DHT22;10875;50.444;30.540;2022-10-22T00:13:15;4.90;99.90
21429;DHT22;10875;50.444;30.540;2022-10-22T00:15:41;4.90;99.90
21429;DHT22;10875;50.444;30.540;2022-10-22T00:18:07;4.90;99.90
21429;DHT22;10875;50.444;30.540;2022-10-22T00:20:32;4.80;99.90
21429;DHT22;10875;50.444;30.540;2022-10-22T00:22:58;4.80;99.90
21429;DHT22;10875;50.444;30.540;2022-10-22T00:25:23;4.80;99.90
21429;DHT22;10875;50.444;30.540;2022-10-22T00:27:49;4.80;99.90
21429;DHT22;10875;50.444;30.540;2022-10-22T00:30:14;4.70;99.90
21429;DHT22;10875;50.444;30.540;2022-10-22T00:32:40;4.70;99.90
21429;DHT22;10875;50.444;30.540;2022-10-22T00:35:06;4.70;99.90
21429;DHT22;10875;50.444;30.540;2022-10-22T00:37:31;4.70;99.90
21429;DHT22;10875;50.444;30.540;2022-10-22T00:39:57;5.70;99.90
21429;DHT22;10875;50.444;30.540;2022-10-22T00:42:25;4.60;99.90
21429;DHT22;10875;50.444;30.540;2022-10-22T00:47:51;4.60;99.90
21429;DHT22;10875;50.444;30.540;2022-10-22T00:50:53;4.70;99.90
21429;DHT22;10875;50.444;30.540;2022-10-22T00:53:20;4.60;99.90
21429;DHT22;10875;50.444;30.540;2022-10-22T00:55:51;4.60;99.90
21429;DHT22;10875;50.444;30.540;2022-10-22T00:58:19;4.50;99.90
21429;DHT22;10875;50.444;30.540;2022-10-22T01:00:46;4.60;99.90
21429;DHT22;10875;50.444;30.540;2022-10-22T01:03:12;4.60;99.90
21429;DHT22;10875;50.444;30.540;2022-10-22T01:06:04;4.60;99.90
21429;DHT22;10875;50.444;30.540;2022-10-22T01:08:53;4.70;99.90
21429;DHT22;10875;50.444;30.540;2022-10-22T01:11:29;4.70;99.90
21429;DHT22;10875;50.444;30.540;2022-10-22T01:19:47;4.80;99.90
21429;DHT22;10875;50.444;30.540;2022-10-22T01:25:20;4.80;99.90
21429;DHT22;10875;50.444;30.540;2022-10-22T01:30:37;4.80;99.90
21429;DHT22;10875;50.444;30.540;2022-10-22T01:33:04;4.70;99.90
21429;DHT22;10875;50.444;30.540;2022-10-22T01:35:37;4.80;99.90
21429;DHT22;10875;50.444;30.540;2022-10-22T01:38:06;4.80;99.90
21429;DHT22;10875;50.444;30.540;2022-10-22T01:40:34;4.80;99.90
21429;DHT22;10875;50.444;30.540;2022-10-22T01:43:05;4.70;99.90
21429;DHT22;10875;50.444;30.540;2022-10-22T01:45:37;4.70;99.90
21429;DHT22;10875;50.444;30.540;2022-10-22T01:56:42;4.70;99.90
21429;DHT22;10875;50.444;30.540;2022-10-22T02:04:57;4.80;99.90
21429;DHT22;10875;50.444;30.540;2022-10-22T02:07:29;4.80;99.90
21429;DHT22;10875;50.444;30.540;2022-10-22T02:09:55;4.90;99.90
21429;DHT22;10875;50.444;30.540;2022-10-22T02:12:23;4.90;99.90
21429;DHT22;10875;50.444;30.540;2022-10-22T02:14:51;4.90;99.90
21429;DHT22;10875;50.444;30.540;2022-10-22T02:17:20;4.80;99.90
21429;DHT22;10875;50.444;30.540;2022-10-22T02:20:00;4.80;99.90
21429;DHT22;10875;50.444;30.540;2022-10-22T02:22:28;4.70;99.90
21429;DHT22;10875;50.444;30.540;2022-10-22T02:24:54;4.80;99.90
21429;DHT22;10875;50.444;30.540;2022-10-22T02:27:25;4.70;99.90
21429;DHT22;10875;50.444;30.540;2022-10-22T02:30:04;4.70;99.90
21429;DHT22;10875;50.444;30.540;2022-10-22T02:32:43;6.80;99.90
21429;DHT22;10875;50.444;30.540;2022-10-22T02:35:14;5.30;99.90
21429;DHT22;10875;50.444;30.540;2022-10-22T02:37:42;4.80;99.90
21429;DHT22;10875;50.444;30.540;2022-10-22T02:40:08;4.70;99.90
21429;DHT22;10875;50.444;30.540;2022-10-22T02:42:35;4.80;99.90
21429;DHT22;10875;50.444;30.540;2022-10-22T02:45:02;4.90;99.90
21429;DHT22;10875;50.444;30.540;2022-10-22T02:47:28;4.90;99.90
21429;DHT22;10875;50.444;30.540;2022-10-22T02:49:53;4.80;99.90
21429;DHT22;10875;50.444;30.540;2022-10-22T02:52:19;4.80;99.90
21429;DHT22;10875;50.444;30.540;2022-10-22T02:54:44;4.90;99.90
21429;DHT22;10875;50.444;30.540;2022-10-22T02:57:10;4.70;99.90
21429;DHT22;10875;50.444;30.540;2022-10-22T02:59:35;4.70;99.90
21429;DHT22;10875;50.444;30.540;2022-10-22T03:02:01;4.70;99.90
21429;DHT22;10875;50.444;30.540;2022-10-22T03:04:27;4.70;99.90
21429;DHT22;10875;50.444;30.540;2022-10-22T03:06:52;4.70;99.90
21429;DHT22;10875;50.444;30.540;2022-10-22T03:09:18;4.70;99.90
21429;DHT22;10875;50.444;30.540;2022-10-22T03:11:44;4.70;99.90
21429;DHT22;10875;50.444;30.540;2022-10-22T03:14:09;4.70;99.90
21429;DHT22;10875;50.444;30.540;2022-10-22T03:16:35;4.60;99.90
21429;DHT22;10875;50.444;30.540;2022-10-22T03:19:00;4.50;99.90
21429;DHT22;10875;50.444;30.540;2022-10-22T03:21:44;4.40;99.90
21429;DHT22;10875;50.444;30.540;2022-10-22T03:24:16;4.40;99.90
21429;DHT22;10875;50.444;30.540;2022-10-22T03:26:44;4.50;99.90
21429;DHT22;10875;50.444;30.540;2022-10-22T03:29:12;4.50;99.90
21429;DHT22;10875;50.444;30.540;2022-10-22T03:31:38;4.40;99.90
21429;DHT22;10875;50.444;30.540;2022-10-22T03:34:04;4.50;99.90
21429;DHT22;10875;50.444;30.540;2022-10-22T03:36:30;4.50;99.90
21429;DHT22;10875;50.444;30.540;2022-10-22T03:38:57;4.40;99.90
21429;DHT22;10875;50.444;30.540;2022-10-22T03:41:23;4.40;99.90
21429;DHT22;10875;50.444;30.540;2022-10-22T03:43:49;4.40;99.90
21429;DHT22;10875;50.444;30.540;2022-10-22T03:46:17;4.30;99.90
21429;DHT22;10875;50.444;30.540;2022-10-22T03:48:43;4.30;99.90
21429;DHT22;10875;50.444;30.540;2022-10-22T03:51:08;4.30;99.90
21429;DHT22;10875;50.444;30.540;2022-10-22T03:53:35;4.40;99.90
21429;DHT22;10875;50.444;30.540;2022-10-22T03:56:00;4.40;99.90
21429;DHT22;10875;50.444;30.540;2022-10-22T03:58:26;4.40;99.90
21429;DHT22;10875;50.444;30.540;2022-10-22T04:00:51;4.40;99.90
21429;DHT22;10875;50.444;30.540;2022-10-22T04:03:17;4.40;99.90
21429;DHT22;10875;50.444;30.540;2022-10-22T04:05:42;4.40;99.90
21429;DHT22;10875;50.444;30.540;2022-10-22T04:08:08;4.50;99.90
21429;DHT22;10875;50.444;30.540;2022-10-22T04:10:34;4.60;99.90
21429;DHT22;10875;50.444;30.540;2022-10-22T04:13:00;4.50;99.90
21429;DHT22;10875;50.444;30.540;2022-10-22T04:15:25;5.90;99.90
21429;DHT22;10875;50.444;30.540;2022-10-22T04:17:53;4.50;99.90
21429;DHT22;10875;50.444;30.540;2022-10-22T04:20:18;4.40;99.90
21429;DHT22;10875;50.444;30.540;2022-10-22T04:22:44;4.50;99.90
21429;DHT22;10875;50.444;30.540;2022-10-22T04:25:09;4.50;99.90
21429;DHT22;10875;50.444;30.540;2022-10-22T04:27:35;4.50;99.90
21429;DHT22;10875;50.444;30.540;2022-10-22T04:30:02;4.40;99.90
21429;DHT22;10875;50.444;30.540;2022-10-22T04:32:28;4.40;99.90
21429;DHT22;10875;50.444;30.540;2022-10-22T04:34:53;4.40;99.90
21429;DHT22;10875;50.444;30.540;2022-10-22T04:37:19;4.40;99.90
21429;DHT22;10875;50.444;30.540;2022-10-22T04:39:46;4.40;99.90
21429;DHT22;10875;50.444;30.540;2022-10-22T04:42:11;4.50;99.90
21429;DHT22;10875;50.444;30.540;2022-10-22T04:44:37;4.50;99.90
21429;DHT22;10875;50.444;30.540;2022-10-22T04:47:03;4.50;99.90
21429;DHT22;10875;50.444;30.540;2022-10-22T04:49:28;4.50;99.90
21429;DHT22;10875;50.444;30.540;2022-10-22T04:51:54;4.60;99.90
21429;DHT22;10875;50.444;30.540;2022-10-22T04:54:19;4.60;99.90
21429;DHT22;10875;50.444;30.540;2022-10-22T04:56:45;4.50;99.90
21429;DHT22;10875;50.444;30.540;2022-10-22T04:59:11;4.60;99.90
21429;DHT22;10875;50.444;30.540;2022-10-22T05:01:39;4.70;99.90
21429;DHT22;10875;50.444;30.540;2022-10-22T05:04:06;4.70;99.90
21429;DHT22;10875;50.444;30.540;2022-10-22T05:06:34;4.70;99.90
21429;DHT22;10875;50.444;30.540;2022-10-22T05:09:05;4.70;99.90
21429;DHT22;10875;50.444;30.540;2022-10-22T05:11:37;4.80;99.90
21429;DHT22;10875;50.444;30.540;2022-10-22T05:14:05;4.80;99.90
21429;DHT22;10875;50.444;30.540;2022-10-22T05:16:33;4.80;99.90
21429;DHT22;10875;50.444;30.540;2022-10-22T05:18:59;4.80;99.90
21429;DHT22;10875;50.444;30.540;2022-10-22T05:21:25;4.80;99.90
21429;DHT22;10875;50.444;30.540;2022-10-22T05:23:52;4.70;99.90
21429;DHT22;10875;50.444;30.540;2022-10-22T05:26:20;4.70;99.90
21429;DHT22;10875;50.444;30.540;2022-10-22T05:28:46;4.80;99.90
21429;DHT22;10875;50.444;30.540;2022-10-22T05:31:12;4.80;99.90
21429;DHT22;10875;50.444;30.540;2022-10-22T05:33:39;4.90;99.90
21429;DHT22;10875;50.444;30.540;2022-10-22T05:36:06;4.80;99.90
21429;DHT22;10875;50.444;30.540;2022-10-22T05:38:34;4.80;99.90
21429;DHT22;10875;50.444;30.540;2022-10-22T05:43:31;4.90;99.90
21429;DHT22;10875;50.444;30.540;2022-10-22T05:46:02;4.90;99.90
21429;DHT22;10875;50.444;30.540;2022-10-22T05:48:28;5.00;99.90
21429;DHT22;10875;50.444;30.540;2022-10-22T05:50:54;5.00;99.90
21429;DHT22;10875;50.444;30.540;2022-10-22T05:53:19;5.00;99.90
21429;DHT22;10875;50.444;30.540;2022-10-22T05:55:45;5.10;99.90
21429;DHT22;10875;50.444;30.540;2022-10-22T05:58:11;5.10;99.90
21429;DHT22;10875;50.444;30.540;2022-10-22T06:00:37;4.70;99.90
21429;DHT22;10875;50.444;30.540;2022-10-22T06:03:03;5.30;99.90
21429;DHT22;10875;50.444;30.540;2022-10-22T06:05:29;5.50;99.90
21429;DHT22;10875;50.444;30.540;2022-10-22T06:07:55;4.70;99.90
21429;DHT22;10875;50.444;30.540;2022-10-22T06:10:21;5.80;99.90
21429;DHT22;10875;50.444;30.540;2022-10-22T06:12:48;5.80;99.90
21429;DHT22;10875;50.444;30.540;2022-10-22T06:15:15;5.90;99.90
21429;DHT22;10875;50.444;30.540;2022-10-22T06:17:43;5.90;99.90
21429;DHT22;10875;50.444;30.540;2022-10-22T06:20:10;5.80;99.90
21429;DHT22;10875;50.444;30.540;2022-10-22T06:22:35;5.90;99.90
21429;DHT22;10875;50.444;30.540;2022-10-22T06:25:01;5.90;99.90
21429;DHT22;10875;50.444;30.540;2022-10-22T06:27:27;5.90;99.90
21429;DHT22;10875;50.444;30.540;2022-10-22T06:29:52;6.00;99.90
21429;DHT22;10875;50.444;30.540;2022-10-22T06:32:18;6.00;99.90
21429;DHT22;10875;50.444;30.540;2022-10-22T06:34:43;6.00;99.90
21429;DHT22;10875;50.444;30.540;2022-10-22T06:37:09;6.00;99.90
21429;DHT22;10875;50.444;30.540;2022-10-22T06:39:35;5.90;99.90
21429;DHT22;10875;50.444;30.540;2022-10-22T06:42:01;5.90;99.90
21429;DHT22;10875;50.444;30.540;2022-10-22T06:44:26;5.90;99.90
21429;DHT22;10875;50.444;30.540;2022-10-22T06:46:52;5.90;99.90
21429;DHT22;10875;50.444;30.540;2022-10-22T06:49:19;5.90;99.90
21429;DHT22;10875;50.444;30.540;2022-10-22T06:51:47;6.00;99.90
21429;DHT22;10875;50.444;30.540;2022-10-22T06:54:13;6.10;99.90
21429;DHT22;10875;50.444;30.540;2022-10-22T06:56:39;6.20;99.90
21429;DHT22;10875;50.444;30.540;2022-10-22T06:59:05;6.30;99.90
21429;DHT22;10875;50.444;30.540;2022-10-22T07:01:32;6.40;99.90
21429;DHT22;10875;50.444;30.540;2022-10-22T07:03:58;6.60;99.90
21429;DHT22;10875;50.444;30.540;2022-10-22T07:06:25;6.60;99.90
21429;DHT22;10875;50.444;30.540;2022-10-22T07:08:52;6.80;99.90
21429;DHT22;10875;50.444;30.540;2022-10-22T07:11:20;7.10;99.90
21429;DHT22;10875;50.444;30.540;2022-10-22T07:13:47;7.20;99.90
21429;DHT22;10875;50.444;30.540;2022-10-22T07:16:14;7.40;99.90
21429;DHT22;10875;50.444;30.540;2022-10-22T07:18:41;7.50;99.90
21429;DHT22;10875;50.444;30.540;2022-10-22T07:21:08;7.50;99.90
21429;DHT22;10875;50.444;30.540;2022-10-22T07:23:33;7.40;99.90
21429;DHT22;10875;50.444;30.540;2022-10-22T07:25:59;7.40;99.90
21429;DHT22;10875;50.444;30.540;2022-10-22T07:28:27;7.40;99.90
21429;DHT22;10875;50.444;30.540;2022-10-22T07:30:53;7.40;99.90
21429;DHT22;10875;50.444;30.540;2022-10-22T07:33:18;7.40;99.90
21429;DHT22;10875;50.444;30.540;2022-10-22T07:35:44;7.50;99.90
21429;DHT22;10875;50.444;30.540;2022-10-22T07:38:10;7.60;99.90
21429;DHT22;10875;50.444;30.540;2022-10-22T07:40:36;7.60;99.90
21429;DHT22;10875;50.444;30.540;2022-10-22T07:43:02;7.60;99.90
21429;DHT22;10875;50.444;30.540;2022-10-22T07:45:28;7.50;99.90
21429;DHT22;10875;50.444;30.540;2022-10-22T07:47:53;7.40;99.90
21429;DHT22;10875;50.444;30.540;2022-10-22T07:50:19;7.50;99.90
21429;DHT22;10875;50.444;30.540;2022-10-22T07:52:45;7.60;99.90
21429;DHT22;10875;50.444;30.540;2022-10-22T07:55:11;7.40;99.90
21429;DHT22;10875;50.444;30.540;2022-10-22T07:57:38;7.40;99.90
21429;DHT22;10875;50.444;30.540;2022-10-22T08:00:05;7.50;99.90
21429;DHT22;10875;50.444;30.540;2022-10-22T08:02:31;7.40;99.90
21429;DHT22;10875;50.444;30.540;2022-10-22T08:04:56;7.40;99.90
21429;DHT22;10875;50.444;30.540;2022-10-22T08:07:22;7.50;99.90
21429;DHT22;10875;50.444;30.540;2022-10-22T08:09:48;7.60;99.90
21429;DHT22;10875;50.444;30.540;2022-10-22T08:12:13;7.70;99.90
21429;DHT22;10875;50.444;30.540;2022-10-22T08:14:39;7.80;99.90
21429;DHT22;10875;50.444;30.540;2022-10-22T08:17:05;7.90;99.90
21429;DHT22;10875;50.444;30.540;2022-10-22T08:19:30;7.90;99.90
21429;DHT22;10875;50.444;30.540;2022-10-22T08:21:57;7.90;99.90
21429;DHT22;10875;50.444;30.540;2022-10-22T08:24:23;8.00;99.90
21429;DHT22;10875;50.444;30.540;2022-10-22T08:26:49;7.90;99.90
21429;DHT22;10875;50.444;30.540;2022-10-22T08:29:14;7.90;99.90
21429;DHT22;10875;50.444;30.540;2022-10-22T08:31:40;7.90;99.90
21429;DHT22;10875;50.444;30.540;2022-10-22T08:34:06;8.00;99.90
21429;DHT22;10875;50.444;30.540;2022-10-22T08:36:33;8.10;99.90
21429;DHT22;10875;50.444;30.540;2022-10-22T08:38:58;8.20;99.90
21429;DHT22;10875;50.444;30.540;2022-10-22T08:41:24;8.30;99.90
21429;DHT22;10875;50.444;30.540;2022-10-22T08:44:18;8.40;99.90
21429;DHT22;10875;50.444;30.540;2022-10-22T08:49:40;8.50;99.90
21429;DHT22;10875;50.444;30.540;2022-10-22T08:52:17;8.40;99.90
21429;DHT22;10875;50.444;30.540;2022-10-22T08:54:56;8.50;99.90
21429;DHT22;10875;50.444;30.540;2022-10-22T09:00:11;8.50;99.90
21429;DHT22;10875;50.444;30.540;2022-10-22T09:05:55;8.50;99.90
21429;DHT22;10875;50.444;30.540;2022-10-22T09:08:21;8.50;99.90
21429;DHT22;10875;50.444;30.540;2022-10-22T09:10:51;8.60;99.90
21429;DHT22;10875;50.444;30.540;2022-10-22T09:13:20;8.60;99.90
21429;DHT22;10875;50.444;30.540;2022-10-22T09:15:54;8.50;99.90
21429;DHT22;10875;50.444;30.540;2022-10-22T09:18:42;8.50;99.90
21429;DHT22;10875;50.444;30.540;2022-10-22T09:21:31;8.40;99.90
21429;DHT22;10875;50.444;30.540;2022-10-22T09:24:30;8.40;99.90
21429;DHT22;10875;50.444;30.540;2022-10-22T09:26:57;8.30;99.90
21429;DHT22;10875;50.444;30.540;2022-10-22T09:29:30;8.20;99.90
21429;DHT22;10875;50.444;30.540;2022-10-22T09:31:56;8.30;99.90
21429;DHT22;10875;50.444;30.540;2022-10-22T09:34:21;8.30;99.90
21429;DHT22;10875;50.444;30.540;2022-10-22T09:36:56;8.30;99.90
21429;DHT22;10875;50.444;30.540;2022-10-22T09:39:28;8.30;99.90
21429;DHT22;10875;50.444;30.540;2022-10-22T09:41:56;8.30;99.90
21429;DHT22;10875;50.444;30.540;2022-10-22T09:44:21;8.40;99.90
21429;DHT22;10875;50.444;30.540;2022-10-22T09:46:47;8.40;99.90
21429;DHT22;10875;50.444;30.540;2022-10-22T09:49:15;8.40;99.90
21429;DHT22;10875;50.444;30.540;2022-10-22T09:51:59;8.40;99.90
21429;DHT22;10875;50.444;30.540;2022-10-22T09:56:56;8.50;99.90
21429;DHT22;10875;50.444;30.540;2022-10-22T09:59:31;8.50;99.90
21429;DHT22;10875;50.444;30.540;2022-10-22T10:02:12;8.50;99.90
21429;DHT22;10875;50.444;30.540;2022-10-22T10:04:55;8.50;99.90
21429;DHT22;10875;50.444;30.540;2022-10-22T10:07:26;8.50;99.90
21429;DHT22;10875;50.444;30.540;2022-10-22T10:09:54;8.60;99.90
21429;DHT22;10875;50.444;30.540;2022-10-22T10:12:37;8.60;99.90
21429;DHT22;10875;50.444;30.540;2022-10-22T10:15:19;8.60;99.90
21429;DHT22;10875;50.444;30.540;2022-10-22T10:21:14;8.80;99.90
21429;DHT22;10875;50.444;30.540;2022-10-22T10:24:08;8.90;99.90
21429;DHT22;10875;50.444;30.540;2022-10-22T10:26:47;9.00;99.90
21429;DHT22;10875;50.444;30.540;2022-10-22T10:29:26;9.00;99.90
21429;DHT22;10875;50.444;30.540;2022-10-22T10:32:02;9.00;99.90
21429;DHT22;10875;50.444;30.540;2022-10-22T10:34:45;9.10;99.90
21429;DHT22;10875;50.444;30.540;2022-10-22T10:37:23;9.20;99.90
21429;DHT22;10875;50.444;30.540;2022-10-22T10:40:16;9.30;99.90
21429;DHT22;10875;50.444;30.540;2022-10-22T10:43:14;9.30;99.90
21429;DHT22;10875;50.444;30.540;2022-10-22T10:48:49;9.30;99.90
21429;DHT22;10875;50.444;30.540;2022-10-22T10:54:12;9.30;99.90
21429;DHT22;10875;50.444;30.540;2022-10-22T10:59:56;9.40;99.90
21429;DHT22;10875;50.444;30.540;2022-10-22T11:07:58;9.50;99.90
21429;DHT22;10875;50.444;30.540;2022-10-22T11:13:01;9.50;99.90
21429;DHT22;10875;50.444;30.540;2022-10-22T11:15:34;9.40;99.90
21429;DHT22;10875;50.444;30.540;2022-10-22T11:18:34;9.50;99.90
21429;DHT22;10875;50.444;30.540;2022-10-22T11:21:26;9.50;99.90
21429;DHT22;10875;50.444;30.540;2022-10-22T11:26:54;9.60;99.90
21429;DHT22;10875;50.444;30.540;2022-10-22T11:29:23;9.60;99.90
21429;DHT22;10875;50.444;30.540;2022-10-22T11:31:52;9.70;99.90
21429;DHT22;10875;50.444;30.540;2022-10-22T11:36:52;9.90;99.90
21429;DHT22;10875;50.444;30.540;2022-10-22T11:42:23;9.90;99.90
21429;DHT22;10875;50.444;30.540;2022-10-22T11:47:34;10.00;99.90
21429;DHT22;10875;50.444;30.540;2022-10-22T12:11:39;10.40;99.90
21429;DHT22;10875;50.444;30.540;2022-10-22T12:14:32;10.40;99.90
21429;DHT22;10875;50.444;30.540;2022-10-22T12:17:13;10.50;99.90
21429;DHT22;10875;50.444;30.540;2022-10-22T12:20:06;10.50;99.90
21429;DHT22;10875;50.444;30.540;2022-10-22T12:22:33;10.50;99.90
21429;DHT22;10875;50.444;30.540;2022-10-22T12:25:05;10.60;99.90
21429;DHT22;10875;50.444;30.540;2022-10-22T12:27:36;10.60;99.90
21429;DHT22;10875;50.444;30.540;2022-10-22T12:30:19;10.70;99.90
21429;DHT22;10875;50.444;30.540;2022-10-22T12:32:57;10.70;99.90
21429;DHT22;10875;50.444;30.540;2022-10-22T12:35:27;10.80;99.90
21429;DHT22;10875;50.444;30.540;2022-10-22T12:38:11;10.70;99.90
21429;DHT22;10875;50.444;30.540;2022-10-22T12:40:39;10.70;99.90
21429;DHT22;10875;50.444;30.540;2022-10-22T12:43:17;10.80;99.90
21429;DHT22;10875;50.444;30.540;2022-10-22T12:45:45;10.90;99.90
21429;DHT22;10875;50.444;30.540;2022-10-22T12:48:18;11.00;99.90
21429;DHT22;10875;50.444;30.540;2022-10-22T12:50:47;10.90;99.90
21429;DHT22;10875;50.444;30.540;2022-10-22T12:53:17;10.90;99.90
21429;DHT22;10875;50.444;30.540;2022-10-22T12:55:48;11.00;99.90
21429;DHT22;10875;50.444;30.540;2022-10-22T12:58:24;11.00;99.90
21429;DHT22;10875;50.444;30.540;2022-10-22T13:00:54;11.10;99.90
21429;DHT22;10875;50.444;30.540;2022-10-22T13:03:40;11.20;99.90
21429;DHT22;10875;50.444;30.540;2022-10-22T13:09:16;11.30;99.90
21429;DHT22;10875;50.444;30.540;2022-10-22T13:17:13;11.20;99.90
21429;DHT22;10875;50.444;30.540;2022-10-22T13:22:39;11.20;99.90
21429;DHT22;10875;50.444;30.540;2022-10-22T13:27:53;11.20;99.90
21429;DHT22;10875;50.444;30.540;2022-10-22T13:30:35;11.20;99.90
21429;DHT22;10875;50.444;30.540;2022-10-22T13:33:16;11.20;99.90
21429;DHT22;10875;50.444;30.540;2022-10-22T13:35:44;11.20;99.90
21429;DHT22;10875;50.444;30.540;2022-10-22T13:38:19;11.30;99.90
21429;DHT22;10875;50.444;30.540;2022-10-22T13:40:46;11.30;99.90
21429;DHT22;10875;50.444;30.540;2022-10-22T13:43:12;11.40;99.90
21429;DHT22;10875;50.444;30.540;2022-10-22T13:45:38;11.40;99.90
21429;DHT22;10875;50.444;30.540;2022-10-22T13:48:04;11.50;99.90
21429;DHT22;10875;50.444;30.540;2022-10-22T13:50:30;11.60;99.90
21429;DHT22;10875;50.444;30.540;2022-10-22T13:52:57;11.60;99.90
21429;DHT22;10875;50.444;30.540;2022-10-22T13:55:26;11.70;99.90
21429;DHT22;10875;50.444;30.540;2022-10-22T13:57:59;11.70;99.90
21429;DHT22;10875;50.444;30.540;2022-10-22T14:00:27;11.70;99.90
21429;DHT22;10875;50.444;30.540;2022-10-22T14:02:56;11.70;99.90
21429;DHT22;10875;50.444;30.540;2022-10-22T14:05:22;11.60;99.90
21429;DHT22;10875;50.444;30.540;2022-10-22T14:07:48;11.60;99.90
21429;DHT22;10875;50.444;30.540;2022-10-22T14:10:18;11.70;99.90
21429;DHT22;10875;50.444;30.540;2022-10-22T14:12:44;11.70;99.90
21429;DHT22;10875;50.444;30.540;2022-10-22T14:15:12;11.70;99.90
21429;DHT22;10875;50.444;30.540;2022-10-22T14:17:39;11.60;99.90
21429;DHT22;10875;50.444;30.540;2022-10-22T14:20:28;11.60;99.90
21429;DHT22;10875;50.444;30.540;2022-10-22T14:22:55;11.50;99.90
21429;DHT22;10875;50.444;30.540;2022-10-22T14:25:23;11.50;99.90
21429;DHT22;10875;50.444;30.540;2022-10-22T14:27:49;11.50;99.90
21429;DHT22;10875;50.444;30.540;2022-10-22T14:30:17;11.40;99.90
21429;DHT22;10875;50.444;30.540;2022-10-22T14:32:43;11.30;99.90
21429;DHT22;10875;50.444;30.540;2022-10-22T14:35:14;11.20;99.90
21429;DHT22;10875;50.444;30.540;2022-10-22T14:37:40;11.20;99.90
21429;DHT22;10875;50.444;30.540;2022-10-22T14:40:07;11.20;99.90
21429;DHT22;10875;50.444;30.540;2022-10-22T14:42:37;11.20;99.90
21429;DHT22;10875;50.444;30.540;2022-10-22T14:45:05;11.10;99.90
21429;DHT22;10875;50.444;30.540;2022-10-22T14:47:31;11.10;99.90
21429;DHT22;10875;50.444;30.540;2022-10-22T14:49:57;11.10;99.90
21429;DHT22;10875;50.444;30.540;2022-10-22T14:52:23;11.10;99.90
21429;DHT22;10875;50.444;30.540;2022-10-22T14:54:48;11.10;99.90
21429;DHT22;10875;50.444;30.540;2022-10-22T14:57:14;11.10;99.90
21429;DHT22;10875;50.444;30.540;2022-10-22T14:59:41;11.00;99.90
21429;DHT22;10875;50.444;30.540;2022-10-22T15:02:10;11.00;99.90
21429;DHT22;10875;50.444;30.540;2022-10-22T15:04:36;11.00;99.90
21429;DHT22;10875;50.444;30.540;2022-10-22T15:07:02;10.90;99.90
21429;DHT22;10875;50.444;30.540;2022-10-22T15:09:28;10.90;99.90
21429;DHT22;10875;50.444;30.540;2022-10-22T15:11:54;10.90;99.90
21429;DHT22;10875;50.444;30.540;2022-10-22T15:14:19;10.90;99.90
21429;DHT22;10875;50.444;30.540;2022-10-22T15:16:45;10.80;99.90
21429;DHT22;10875;50.444;30.540;2022-10-22T15:19:10;10.80;99.90
21429;DHT22;10875;50.444;30.540;2022-10-22T15:21:36;10.80;99.90
21429;DHT22;10875;50.444;30.540;2022-10-22T15:24:02;11.70;99.90
21429;DHT22;10875;50.444;30.540;2022-10-22T15:26:28;10.60;99.90
21429;DHT22;10875;50.444;30.540;2022-10-22T15:28:54;10.50;99.90
21429;DHT22;10875;50.444;30.540;2022-10-22T15:31:47;10.50;99.90
21429;DHT22;10875;50.444;30.540;2022-10-22T15:34:18;10.50;99.90
21429;DHT22;10875;50.444;30.540;2022-10-22T15:36:43;10.50;99.90
21429;DHT22;10875;50.444;30.540;2022-10-22T15:39:09;10.50;99.90
21429;DHT22;10875;50.444;30.540;2022-10-22T15:41:36;10.50;99.90
21429;DHT22;10875;50.444;30.540;2022-10-22T15:44:02;10.50;99.90
21429;DHT22;10875;50.444;30.540;2022-10-22T15:46:30;10.60;99.90
21429;DHT22;10875;50.444;30.540;2022-10-22T15:48:56;10.60;99.90
21429;DHT22;10875;50.444;30.540;2022-10-22T15:51:22;10.70;99.90
21429;DHT22;10875;50.444;30.540;2022-10-22T15:53:56;10.60;99.90
21429;DHT22;10875;50.444;30.540;2022-10-22T15:56:23;10.60;99.90
21429;DHT22;10875;50.444;30.540;2022-10-22T15:59:00;10.60;99.90
21429;DHT22;10875;50.444;30.540;2022-10-22T16:01:30;10.60;99.90
21429;DHT22;10875;50.444;30.540;2022-10-22T16:03:56;10.60;99.90
21429;DHT22;10875;50.444;30.540;2022-10-22T16:06:48;10.60;99.90
21429;DHT22;10875;50.444;30.540;2022-10-22T16:09:15;10.60;99.90
21429;DHT22;10875;50.444;30.540;2022-10-22T16:11:41;10.60;99.90
21429;DHT22;10875;50.444;30.540;2022-10-22T16:14:08;10.50;99.90
21429;DHT22;10875;50.444;30.540;2022-10-22T16:16:35;10.50;99.90
21429;DHT22;10875;50.444;30.540;2022-10-22T16:19:01;10.40;99.90
21429;DHT22;10875;50.444;30.540;2022-10-22T16:21:27;10.30;99.90
21429;DHT22;10875;50.444;30.540;2022-10-22T16:23:53;10.40;99.90
21429;DHT22;10875;50.444;30.540;2022-10-22T16:26:19;10.40;99.90
21429;DHT22;10875;50.444;30.540;2022-10-22T16:28:45;10.40;99.90
21429;DHT22;10875;50.444;30.540;2022-10-22T16:31:13;10.40;99.90
21429;DHT22;10875;50.444;30.540;2022-10-22T16:33:40;10.40;99.90
21429;DHT22;10875;50.444;30.540;2022-10-22T16:36:14;10.40;99.90
21429;DHT22;10875;50.444;30.540;2022-10-22T16:38:40;10.40;99.90
21429;DHT22;10875;50.444;30.540;2022-10-22T16:43:39;10.40;99.90
21429;DHT22;10875;50.444;30.540;2022-10-22T16:46:05;10.40;99.90
21429;DHT22;10875;50.444;30.540;2022-10-22T16:48:32;10.40;99.90
21429;DHT22;10875;50.444;30.540;2022-10-22T16:50:59;10.40;99.90
21429;DHT22;10875;50.444;30.540;2022-10-22T16:53:28;10.40;99.90
21429;DHT22;10875;50.444;30.540;2022-10-22T16:55:54;10.40;99.90
21429;DHT22;10875;50.444;30.540;2022-10-22T16:58:19;10.50;99.90
21429;DHT22;10875;50.444;30.540;2022-10-22T17:00:45;10.40;99.90
21429;DHT22;10875;50.444;30.540;2022-10-22T17:03:10;10.50;99.90
21429;DHT22;10875;50.444;30.540;2022-10-22T17:05:36;10.50;99.90
21429;DHT22;10875;50.444;30.540;2022-10-22T17:08:02;10.50;99.90
21429;DHT22;10875;50.444;30.540;2022-10-22T17:10:28;10.60;99.90
21429;DHT22;10875;50.444;30.540;2022-10-22T17:12:53;10.60;99.90
21429;DHT22;10875;50.444;30.540;2022-10-22T17:15:19;10.70;99.90
21429;DHT22;10875;50.444;30.540;2022-10-22T17:17:45;10.80;99.90
21429;DHT22;10875;50.444;30.540;2022-10-22T17:20:13;10.70;99.90
21429;DHT22;10875;50.444;30.540;2022-10-22T17:22:39;10.70;99.90
21429;DHT22;10875;50.444;30.540;2022-10-22T17:27:54;10.70;99.90
21429;DHT22;10875;50.444;30.540;2022-10-22T17:30:20;10.70;99.90
21429;DHT22;10875;50.444;30.540;2022-10-22T17:32:47;10.70;99.90